sensor_id;sensor_type;location;lat;lon;timestamp;pressure;altitude;pressure_sealevel;temperature;humidity
55675;BME280;41562;44.330;23.802;2022-07-23T00:00:54;100155.84;;;24.35;54.87
55675;BME280;41562;44.330;23.802;2022-07-23T00:03:25;100152.09;;;24.21;55.02
55675;BME280;41562;44.330;23.802;2022-07-23T00:05:52;100161.50;;;24.23;54.85
55675;BME280;41562;44.330;23.802;2022-07-23T00:08:20;100156.91;;;24.08;55.40
55675;BME280;41562;44.330;23.802;2022-07-23T00:10:48;100164.88;;;24.17;55.06
55675;BME280;41562;44.330;23.802;2022-07-23T00:13:15;100160.72;;;24.03;55.35
55675;BME280;41562;44.330;23.802;2022-07-23T00:15:45;100169.72;;;24.04;55.48
55675;BME280;41562;44.330;23.802;2022-07-23T00:18:15;100168.56;;;24.05;55.07
55675;BME280;41562;44.330;23.802;2022-07-23T00:20:43;100170.63;;;24.12;55.17
55675;BME280;41562;44.330;23.802;2022-07-23T00:23:10;100177.19;;;24.07;55.45
55675;BME280;41562;44.330;23.802;2022-07-23T00:25:38;100174.78;;;24.02;55.46
55675;BME280;41562;44.330;23.802;2022-07-23T00:28:08;100174.06;;;23.86;56.17
55675;BME280;41562;44.330;23.802;2022-07-23T00:30:36;100181.81;;;23.84;56.28
55675;BME280;41562;44.330;23.802;2022-07-23T00:33:06;100170.69;;;23.92;56.19
55675;BME280;41562;44.330;23.802;2022-07-23T00:35:38;100176.13;;;23.92;56.58
55675;BME280;41562;44.330;23.802;2022-07-23T00:38:07;100177.78;;;23.97;56.44
55675;BME280;41562;44.330;23.802;2022-07-23T00:40:35;100173.63;;;23.84;57.00
55675;BME280;41562;44.330;23.802;2022-07-23T00:43:04;100172.25;;;23.93;56.36
55675;BME280;41562;44.330;23.802;2022-07-23T00:45:40;100177.66;;;23.90;56.71
55675;BME280;41562;44.330;23.802;2022-07-23T00:48:14;100178.81;;;23.89;56.54
55675;BME280;41562;44.330;23.802;2022-07-23T00:50:43;100178.25;;;23.80;56.99
55675;BME280;41562;44.330;23.802;2022-07-23T00:53:12;100187.72;;;23.86;56.71
55675;BME280;41562;44.330;23.802;2022-07-23T00:55:48;100183.13;;;23.90;56.44
55675;BME280;41562;44.330;23.802;2022-07-23T00:58:18;100177.94;;;23.85;56.53
55675;BME280;41562;44.330;23.802;2022-07-23T01:00:51;100175.69;;;23.90;56.08
55675;BME280;41562;44.330;23.802;2022-07-23T01:03:27;100174.69;;;23.98;56.16
55675;BME280;41562;44.330;23.802;2022-07-23T01:05:54;100181.25;;;23.94;56.15
55675;BME280;41562;44.330;23.802;2022-07-23T01:08:28;100176.78;;;23.86;55.68
55675;BME280;41562;44.330;23.802;2022-07-23T01:10:59;100176.44;;;23.87;56.08
55675;BME280;41562;44.330;23.802;2022-07-23T01:13:27;100178.44;;;23.71;56.67
55675;BME280;41562;44.330;23.802;2022-07-23T01:15:58;100182.56;;;23.61;56.99
55675;BME280;41562;44.330;23.802;2022-07-23T01:18:25;100180.63;;;23.62;57.38
55675;BME280;41562;44.330;23.802;2022-07-23T01:20:56;100177.25;;;23.34;57.94
55675;BME280;41562;44.330;23.802;2022-07-23T01:23:23;100176.69;;;23.24;58.27
55675;BME280;41562;44.330;23.802;2022-07-23T01:25:54;100179.34;;;23.21;58.81
55675;BME280;41562;44.330;23.802;2022-07-23T01:28:25;100181.38;;;23.24;58.41
55675;BME280;41562;44.330;23.802;2022-07-23T01:31:04;100178.56;;;23.40;58.33
55675;BME280;41562;44.330;23.802;2022-07-23T01:33:34;100173.47;;;23.38;58.49
55675;BME280;41562;44.330;23.802;2022-07-23T01:36:05;100182.66;;;23.30;58.83
55675;BME280;41562;44.330;23.802;2022-07-23T01:38:33;100178.97;;;23.22;58.12
55675;BME280;41562;44.330;23.802;2022-07-23T01:41:00;100174.34;;;23.42;58.32
55675;BME280;41562;44.330;23.802;2022-07-23T01:43:31;100162.28;;;23.43;58.33
55675;BME280;41562;44.330;23.802;2022-07-23T01:46:01;100167.94;;;23.35;59.02
55675;BME280;41562;44.330;23.802;2022-07-23T01:48:35;100169.06;;;23.49;58.27
55675;BME280;41562;44.330;23.802;2022-07-23T01:51:05;100172.53;;;23.31;58.50
55675;BME280;41562;44.330;23.802;2022-07-23T01:53:33;100168.00;;;23.19;58.30
55675;BME280;41562;44.330;23.802;2022-07-23T01:56:01;100173.63;;;23.26;58.32
55675;BME280;41562;44.330;23.802;2022-07-23T01:58:30;100172.69;;;23.38;58.19
55675;BME280;41562;44.330;23.802;2022-07-23T02:01:00;100177.34;;;23.37;58.38
55675;BME280;41562;44.330;23.802;2022-07-23T02:03:27;100175.84;;;23.20;58.79
55675;BME280;41562;44.330;23.802;2022-07-23T02:05:58;100172.00;;;23.06;59.23
55675;BME280;41562;44.330;23.802;2022-07-23T02:08:26;100168.50;;;22.90;60.19
55675;BME280;41562;44.330;23.802;2022-07-23T02:10:54;100169.22;;;22.87;60.21
55675;BME280;41562;44.330;23.802;2022-07-23T02:13:22;100166.06;;;22.84;60.23
55675;BME280;41562;44.330;23.802;2022-07-23T02:15:51;100168.09;;;22.88;59.97
55675;BME280;41562;44.330;23.802;2022-07-23T02:18:24;100168.78;;;22.84;60.49
55675;BME280;41562;44.330;23.802;2022-07-23T02:20:54;100171.31;;;22.93;60.15
55675;BME280;41562;44.330;23.802;2022-07-23T02:23:25;100170.19;;;22.94;60.12
55675;BME280;41562;44.330;23.802;2022-07-23T02:25:52;100170.78;;;23.77;57.60
55675;BME280;41562;44.330;23.802;2022-07-23T02:28:20;100174.78;;;24.02;57.50
55675;BME280;41562;44.330;23.802;2022-07-23T02:30:51;100187.53;;;24.17;57.50
55675;BME280;41562;44.330;23.802;2022-07-23T02:33:18;100182.75;;;24.56;56.52
55675;BME280;41562;44.330;23.802;2022-07-23T02:35:51;100184.03;;;24.89;54.24
55675;BME280;41562;44.330;23.802;2022-07-23T02:38:22;100181.25;;;24.59;54.54
55675;BME280;41562;44.330;23.802;2022-07-23T02:40:49;100192.94;;;24.82;54.36
55675;BME280;41562;44.330;23.802;2022-07-23T02:43:20;100191.97;;;24.94;54.27
55675;BME280;41562;44.330;23.802;2022-07-23T02:45:47;100193.22;;;24.51;54.46
55675;BME280;41562;44.330;23.802;2022-07-23T02:48:17;100195.81;;;24.43;54.72
55675;BME280;41562;44.330;23.802;2022-07-23T02:50:45;100200.19;;;24.71;53.96
55675;BME280;41562;44.330;23.802;2022-07-23T02:53:13;100205.72;;;24.29;55.09
55675;BME280;41562;44.330;23.802;2022-07-23T02:55:40;100203.66;;;24.03;55.54
55675;BME280;41562;44.330;23.802;2022-07-23T02:58:11;100204.25;;;23.93;55.54
55675;BME280;41562;44.330;23.802;2022-07-23T03:00:39;100203.66;;;24.03;55.34
55675;BME280;41562;44.330;23.802;2022-07-23T03:03:09;100206.50;;;24.29;54.57
55675;BME280;41562;44.330;23.802;2022-07-23T03:05:40;100206.09;;;24.08;55.11
55675;BME280;41562;44.330;23.802;2022-07-23T03:08:07;100207.16;;;24.23;54.59
55675;BME280;41562;44.330;23.802;2022-07-23T03:10:35;100218.66;;;24.13;55.06
55675;BME280;41562;44.330;23.802;2022-07-23T03:13:06;100217.56;;;23.94;55.57
55675;BME280;41562;44.330;23.802;2022-07-23T03:15:37;100214.16;;;24.01;55.65
55675;BME280;41562;44.330;23.802;2022-07-23T03:18:08;100209.75;;;23.96;55.44
55675;BME280;41562;44.330;23.802;2022-07-23T03:20:38;100216.47;;;23.60;56.58
55675;BME280;41562;44.330;23.802;2022-07-23T03:23:15;100219.06;;;23.73;56.08
55675;BME280;41562;44.330;23.802;2022-07-23T03:25:48;100227.25;;;23.73;56.57
55675;BME280;41562;44.330;23.802;2022-07-23T03:28:21;100221.94;;;23.80;56.58
55675;BME280;41562;44.330;23.802;2022-07-23T03:30:58;100223.81;;;23.76;56.68
55675;BME280;41562;44.330;23.802;2022-07-23T03:33:25;100222.22;;;23.55;57.22
55675;BME280;41562;44.330;23.802;2022-07-23T03:35:59;100229.13;;;23.69;57.02
55675;BME280;41562;44.330;23.802;2022-07-23T03:38:27;100224.34;;;24.04;55.78
55675;BME280;41562;44.330;23.802;2022-07-23T03:40:55;100215.03;;;23.86;56.24
55675;BME280;41562;44.330;23.802;2022-07-23T03:43:25;100218.56;;;23.67;56.95
55675;BME280;41562;44.330;23.802;2022-07-23T03:45:56;100224.81;;;23.68;57.08
55675;BME280;41562;44.330;23.802;2022-07-23T03:48:33;100223.38;;;23.74;56.72
55675;BME280;41562;44.330;23.802;2022-07-23T03:51:05;100218.41;;;23.98;56.02
55675;BME280;41562;44.330;23.802;2022-07-23T03:53:36;100221.75;;;24.11;55.76
55675;BME280;41562;44.330;23.802;2022-07-23T03:56:07;100225.16;;;24.04;55.89
55675;BME280;41562;44.330;23.802;2022-07-23T03:58:35;100223.66;;;24.07;55.74
55675;BME280;41562;44.330;23.802;2022-07-23T04:01:03;100231.53;;;24.12;55.98
55675;BME280;41562;44.330;23.802;2022-07-23T04:03:37;100241.91;;;24.22;55.86
55675;BME280;41562;44.330;23.802;2022-07-23T04:06:06;100236.22;;;24.12;55.90
55675;BME280;41562;44.330;23.802;2022-07-23T04:08:40;100239.75;;;24.12;55.98
55675;BME280;41562;44.330;23.802;2022-07-23T04:11:11;100236.31;;;23.96;56.60
55675;BME280;41562;44.330;23.802;2022-07-23T04:13:49;100244.88;;;23.94;56.71
55675;BME280;41562;44.330;23.802;2022-07-23T04:16:20;100244.38;;;23.70;57.51
55675;BME280;41562;44.330;23.802;2022-07-23T04:18:51;100243.78;;;23.60;57.60
55675;BME280;41562;44.330;23.802;2022-07-23T04:21:24;100246.72;;;23.71;57.39
55675;BME280;41562;44.330;23.802;2022-07-23T04:23:57;100241.41;;;23.78;57.26
55675;BME280;41562;44.330;23.802;2022-07-23T04:26:27;100247.09;;;23.89;57.15
55675;BME280;41562;44.330;23.802;2022-07-23T04:28:55;100243.22;;;23.90;56.95
55675;BME280;41562;44.330;23.802;2022-07-23T04:31:22;100250.53;;;23.67;58.19
55675;BME280;41562;44.330;23.802;2022-07-23T04:33:56;100247.88;;;23.51;58.44
55675;BME280;41562;44.330;23.802;2022-07-23T04:36:24;100248.66;;;23.51;58.65
55675;BME280;41562;44.330;23.802;2022-07-23T04:38:55;100257.66;;;23.52;59.03
55675;BME280;41562;44.330;23.802;2022-07-23T04:41:33;100252.72;;;23.96;57.80
55675;BME280;41562;44.330;23.802;2022-07-23T04:44:04;100245.06;;;24.05;57.62
55675;BME280;41562;44.330;23.802;2022-07-23T04:46:35;100246.00;;;23.93;57.88
55675;BME280;41562;44.330;23.802;2022-07-23T04:49:06;100252.47;;;23.85;58.47
55675;BME280;41562;44.330;23.802;2022-07-23T04:51:40;100247.94;;;23.54;59.69
55675;BME280;41562;44.330;23.802;2022-07-23T04:54:10;100252.06;;;23.64;59.15
55675;BME280;41562;44.330;23.802;2022-07-23T04:56:43;100255.84;;;23.59;59.31
55675;BME280;41562;44.330;23.802;2022-07-23T04:59:15;100258.88;;;23.74;59.05
55675;BME280;41562;44.330;23.802;2022-07-23T05:01:45;100262.91;;;23.80;59.09
55675;BME280;41562;44.330;23.802;2022-07-23T05:04:13;100267.56;;;23.79;59.20
55675;BME280;41562;44.330;23.802;2022-07-23T05:06:48;100270.09;;;24.07;58.44
55675;BME280;41562;44.330;23.802;2022-07-23T05:09:16;100269.88;;;23.96;58.54
55675;BME280;41562;44.330;23.802;2022-07-23T05:11:50;100273.34;;;23.93;59.09
55675;BME280;41562;44.330;23.802;2022-07-23T05:14:18;100280.09;;;23.99;59.56
55675;BME280;41562;44.330;23.802;2022-07-23T05:16:47;100272.09;;;23.91;60.22
55675;BME280;41562;44.330;23.802;2022-07-23T05:19:18;100278.66;;;23.86;60.24
55675;BME280;41562;44.330;23.802;2022-07-23T05:21:54;100279.50;;;23.90;60.30
55675;BME280;41562;44.330;23.802;2022-07-23T05:24:21;100278.00;;;23.93;60.38
55675;BME280;41562;44.330;23.802;2022-07-23T05:26:52;100281.06;;;24.11;60.49
55675;BME280;41562;44.330;23.802;2022-07-23T05:29:23;100273.38;;;24.16;60.49
55675;BME280;41562;44.330;23.802;2022-07-23T05:31:54;100269.19;;;24.41;59.32
55675;BME280;41562;44.330;23.802;2022-07-23T05:34:25;100271.88;;;24.61;58.43
55675;BME280;41562;44.330;23.802;2022-07-23T05:36:57;100277.13;;;24.47;59.46
55675;BME280;41562;44.330;23.802;2022-07-23T05:39:28;100281.97;;;24.57;58.80
55675;BME280;41562;44.330;23.802;2022-07-23T05:41:56;100270.38;;;24.40;59.54
55675;BME280;41562;44.330;23.802;2022-07-23T05:44:23;100271.09;;;24.37;60.19
55675;BME280;41562;44.330;23.802;2022-07-23T05:46:51;100269.28;;;24.45;59.67
55675;BME280;41562;44.330;23.802;2022-07-23T05:49:18;100275.72;;;24.56;59.12
55675;BME280;41562;44.330;23.802;2022-07-23T05:51:46;100280.47;;;24.82;58.58
55675;BME280;41562;44.330;23.802;2022-07-23T05:54:13;100282.53;;;24.66;59.47
55675;BME280;41562;44.330;23.802;2022-07-23T05:56:41;100285.94;;;24.59;59.68
55675;BME280;41562;44.330;23.802;2022-07-23T05:59:14;100287.88;;;24.81;59.26
55675;BME280;41562;44.330;23.802;2022-07-23T06:01:41;100287.22;;;24.88;59.12
55675;BME280;41562;44.330;23.802;2022-07-23T06:04:09;100282.31;;;24.97;59.15
55675;BME280;41562;44.330;23.802;2022-07-23T06:06:37;100291.16;;;25.13;58.89
55675;BME280;41562;44.330;23.802;2022-07-23T06:09:04;100286.38;;;24.84;59.01
55675;BME280;41562;44.330;23.802;2022-07-23T06:11:32;100281.88;;;24.95;58.26
55675;BME280;41562;44.330;23.802;2022-07-23T06:14:00;100289.06;;;25.30;56.78
55675;BME280;41562;44.330;23.802;2022-07-23T06:16:27;100284.22;;;25.72;56.03
55675;BME280;41562;44.330;23.802;2022-07-23T06:18:55;100278.25;;;25.96;55.79
55675;BME280;41562;44.330;23.802;2022-07-23T06:21:22;100283.41;;;26.01;54.81
55675;BME280;41562;44.330;23.802;2022-07-23T06:24:09;100273.44;;;26.20;53.70
55675;BME280;41562;44.330;23.802;2022-07-23T06:26:37;100278.28;;;26.30;53.13
55675;BME280;41562;44.330;23.802;2022-07-23T06:29:04;100277.47;;;26.70;52.56
55675;BME280;41562;44.330;23.802;2022-07-23T06:31:32;100274.75;;;26.70;51.95
55675;BME280;41562;44.330;23.802;2022-07-23T06:33:59;100278.13;;;26.97;51.37
55675;BME280;41562;44.330;23.802;2022-07-23T06:36:26;100279.81;;;27.12;50.94
55675;BME280;41562;44.330;23.802;2022-07-23T06:38:54;100275.13;;;27.16;51.42
55675;BME280;41562;44.330;23.802;2022-07-23T06:41:21;100274.41;;;27.23;51.09
55675;BME280;41562;44.330;23.802;2022-07-23T06:43:49;100278.38;;;27.29;50.93
55675;BME280;41562;44.330;23.802;2022-07-23T06:46:17;100279.25;;;27.43;51.26
55675;BME280;41562;44.330;23.802;2022-07-23T06:48:44;100284.38;;;27.48;50.65
55675;BME280;41562;44.330;23.802;2022-07-23T06:51:12;100286.41;;;27.58;50.25
55675;BME280;41562;44.330;23.802;2022-07-23T06:53:39;100281.13;;;28.01;50.61
55675;BME280;41562;44.330;23.802;2022-07-23T06:56:07;100280.38;;;28.11;49.49
55675;BME280;41562;44.330;23.802;2022-07-23T06:58:34;100281.19;;;28.22;48.55
55675;BME280;41562;44.330;23.802;2022-07-23T07:01:02;100278.91;;;28.60;47.95
55675;BME280;41562;44.330;23.802;2022-07-23T07:03:29;100282.84;;;28.73;47.59
55675;BME280;41562;44.330;23.802;2022-07-23T07:05:57;100286.44;;;28.88;46.74
55675;BME280;41562;44.330;23.802;2022-07-23T07:08:24;100286.03;;;29.17;45.33
55675;BME280;41562;44.330;23.802;2022-07-23T07:10:54;100276.94;;;29.28;42.50
55675;BME280;41562;44.330;23.802;2022-07-23T07:13:22;100278.13;;;29.51;42.31
55675;BME280;41562;44.330;23.802;2022-07-23T07:15:49;100276.47;;;29.68;38.82
55675;BME280;41562;44.330;23.802;2022-07-23T07:18:17;100270.88;;;29.86;39.18
55675;BME280;41562;44.330;23.802;2022-07-23T07:20:44;100272.47;;;29.94;38.17
55675;BME280;41562;44.330;23.802;2022-07-23T07:23:15;100269.56;;;30.22;37.42
55675;BME280;41562;44.330;23.802;2022-07-23T07:25:42;100268.19;;;30.59;37.48
55675;BME280;41562;44.330;23.802;2022-07-23T07:28:10;100264.31;;;30.42;36.91
55675;BME280;41562;44.330;23.802;2022-07-23T07:30:37;100269.00;;;30.49;35.66
55675;BME280;41562;44.330;23.802;2022-07-23T07:33:05;100268.81;;;30.73;35.93
55675;BME280;41562;44.330;23.802;2022-07-23T07:35:32;100269.41;;;30.99;36.05
55675;BME280;41562;44.330;23.802;2022-07-23T07:38:00;100264.09;;;30.74;36.44
55675;BME280;41562;44.330;23.802;2022-07-23T07:40:27;100268.97;;;31.04;36.71
55675;BME280;41562;44.330;23.802;2022-07-23T07:43:00;100272.31;;;31.29;36.19
55675;BME280;41562;44.330;23.802;2022-07-23T07:45:28;100275.03;;;31.33;36.31
55675;BME280;41562;44.330;23.802;2022-07-23T07:47:55;100265.00;;;31.46;37.34
55675;BME280;41562;44.330;23.802;2022-07-23T07:50:23;100269.44;;;31.40;37.46
55675;BME280;41562;44.330;23.802;2022-07-23T07:52:57;100261.34;;;31.22;36.80
55675;BME280;41562;44.330;23.802;2022-07-23T07:55:24;100267.47;;;31.37;35.74
55675;BME280;41562;44.330;23.802;2022-07-23T07:57:58;100269.91;;;31.31;34.95
55675;BME280;41562;44.330;23.802;2022-07-23T08:00:32;100268.09;;;31.51;35.71
55675;BME280;41562;44.330;23.802;2022-07-23T08:03:06;100267.06;;;31.38;34.19
55675;BME280;41562;44.330;23.802;2022-07-23T08:05:36;100264.09;;;31.56;35.37
55675;BME280;41562;44.330;23.802;2022-07-23T08:08:12;100258.78;;;31.38;34.40
55675;BME280;41562;44.330;23.802;2022-07-23T08:10:42;100273.78;;;31.41;35.41
55675;BME280;41562;44.330;23.802;2022-07-23T08:13:14;100260.94;;;31.61;34.73
55675;BME280;41562;44.330;23.802;2022-07-23T08:15:53;100263.06;;;31.80;37.06
55675;BME280;41562;44.330;23.802;2022-07-23T08:18:25;100259.94;;;31.78;35.76
55675;BME280;41562;44.330;23.802;2022-07-23T08:20:53;100257.41;;;31.91;35.05
55675;BME280;41562;44.330;23.802;2022-07-23T08:23:24;100255.53;;;32.11;35.75
55675;BME280;41562;44.330;23.802;2022-07-23T08:26:03;100258.41;;;32.04;34.40
55675;BME280;41562;44.330;23.802;2022-07-23T08:28:34;100258.75;;;32.06;34.70
55675;BME280;41562;44.330;23.802;2022-07-23T08:31:07;100262.63;;;32.12;36.76
55675;BME280;41562;44.330;23.802;2022-07-23T08:33:38;100260.84;;;32.29;34.64
55675;BME280;41562;44.330;23.802;2022-07-23T08:36:12;100256.00;;;32.37;34.64
55675;BME280;41562;44.330;23.802;2022-07-23T08:38:48;100263.50;;;32.36;34.64
55675;BME280;41562;44.330;23.802;2022-07-23T08:41:23;100258.44;;;32.31;33.51
55675;BME280;41562;44.330;23.802;2022-07-23T08:43:57;100252.56;;;32.52;33.90
55675;BME280;41562;44.330;23.802;2022-07-23T08:46:29;100259.41;;;32.71;33.28
55675;BME280;41562;44.330;23.802;2022-07-23T08:48:57;100252.19;;;32.77;34.17
55675;BME280;41562;44.330;23.802;2022-07-23T08:51:26;100250.00;;;32.88;33.48
55675;BME280;41562;44.330;23.802;2022-07-23T08:54:03;100253.75;;;33.01;33.16
55675;BME280;41562;44.330;23.802;2022-07-23T08:56:35;100240.25;;;33.03;32.22
55675;BME280;41562;44.330;23.802;2022-07-23T08:59:06;100251.84;;;32.98;33.46
55675;BME280;41562;44.330;23.802;2022-07-23T09:01:37;100247.75;;;33.06;34.16
55675;BME280;41562;44.330;23.802;2022-07-23T09:04:08;100239.25;;;33.13;34.87
55675;BME280;41562;44.330;23.802;2022-07-23T09:06:42;100233.38;;;33.11;32.72
55675;BME280;41562;44.330;23.802;2022-07-23T09:09:20;100242.69;;;33.25;34.27
55675;BME280;41562;44.330;23.802;2022-07-23T09:14:42;100232.41;;;33.22;32.39
55675;BME280;41562;44.330;23.802;2022-07-23T09:17:18;100224.34;;;33.31;33.28
55675;BME280;41562;44.330;23.802;2022-07-23T09:19:51;100228.75;;;33.48;34.25
55675;BME280;41562;44.330;23.802;2022-07-23T09:22:24;100226.59;;;33.36;31.72
55675;BME280;41562;44.330;23.802;2022-07-23T09:27:54;100221.63;;;33.47;31.87
55675;BME280;41562;44.330;23.802;2022-07-23T09:30:32;100224.81;;;33.45;32.07
55675;BME280;41562;44.330;23.802;2022-07-23T09:33:14;100221.47;;;33.54;32.34
55675;BME280;41562;44.330;23.802;2022-07-23T09:36:03;100218.97;;;33.60;35.24
55675;BME280;41562;44.330;23.802;2022-07-23T09:38:30;100218.41;;;33.68;31.78
55675;BME280;41562;44.330;23.802;2022-07-23T09:43:35;100213.25;;;33.70;33.50
55675;BME280;41562;44.330;23.802;2022-07-23T09:46:21;100210.75;;;33.76;33.40
55675;BME280;41562;44.330;23.802;2022-07-23T09:48:50;100201.78;;;33.68;32.62
55675;BME280;41562;44.330;23.802;2022-07-23T09:51:23;100197.66;;;33.76;33.72
55675;BME280;41562;44.330;23.802;2022-07-23T09:53:56;100206.84;;;33.73;33.29
55675;BME280;41562;44.330;23.802;2022-07-23T09:56:23;100199.06;;;33.84;33.18
55675;BME280;41562;44.330;23.802;2022-07-23T09:58:54;100201.31;;;33.89;32.39
55675;BME280;41562;44.330;23.802;2022-07-23T10:01:21;100197.78;;;33.89;31.65
55675;BME280;41562;44.330;23.802;2022-07-23T10:03:49;100188.50;;;33.96;31.47
55675;BME280;41562;44.330;23.802;2022-07-23T10:06:17;100183.66;;;34.00;32.08
55675;BME280;41562;44.330;23.802;2022-07-23T10:08:47;100184.69;;;34.06;32.14
55675;BME280;41562;44.330;23.802;2022-07-23T10:11:15;100193.72;;;34.10;32.39
55675;BME280;41562;44.330;23.802;2022-07-23T10:13:50;100188.91;;;34.30;31.20
55675;BME280;41562;44.330;23.802;2022-07-23T10:16:19;100188.13;;;34.29;32.53
55675;BME280;41562;44.330;23.802;2022-07-23T10:18:54;100178.41;;;34.38;33.11
55675;BME280;41562;44.330;23.802;2022-07-23T10:24:24;100170.94;;;34.35;31.21
55675;BME280;41562;44.330;23.802;2022-07-23T10:29:52;100167.72;;;34.52;29.33
55675;BME280;41562;44.330;23.802;2022-07-23T10:32:44;100163.13;;;34.29;30.37
55675;BME280;41562;44.330;23.802;2022-07-23T10:35:38;100165.28;;;34.22;31.88
55675;BME280;41562;44.330;23.802;2022-07-23T10:41:41;100159.91;;;34.47;32.53
55675;BME280;41562;44.330;23.802;2022-07-23T10:46:57;100152.22;;;34.39;31.60
55675;BME280;41562;44.330;23.802;2022-07-23T10:49:32;100138.94;;;34.30;31.98
55675;BME280;41562;44.330;23.802;2022-07-23T10:52:28;100132.84;;;34.19;31.03
55675;BME280;41562;44.330;23.802;2022-07-23T10:57:49;100137.00;;;34.43;30.65
55675;BME280;41562;44.330;23.802;2022-07-23T11:00:27;100127.47;;;34.44;31.70
55675;BME280;41562;44.330;23.802;2022-07-23T11:02:58;100124.34;;;34.42;30.41
55675;BME280;41562;44.330;23.802;2022-07-23T11:05:45;100130.19;;;34.60;29.57
55675;BME280;41562;44.330;23.802;2022-07-23T11:08:24;100130.91;;;34.64;31.95
55675;BME280;41562;44.330;23.802;2022-07-23T11:10:54;100126.69;;;34.44;28.90
55675;BME280;41562;44.330;23.802;2022-07-23T11:13:26;100115.13;;;34.45;31.66
55675;BME280;41562;44.330;23.802;2022-07-23T11:16:04;100116.69;;;34.46;30.22
55675;BME280;41562;44.330;23.802;2022-07-23T11:21:44;100107.53;;;34.62;29.71
55675;BME280;41562;44.330;23.802;2022-07-23T11:24:17;100107.34;;;34.69;28.14
55675;BME280;41562;44.330;23.802;2022-07-23T11:26:59;100107.59;;;34.46;28.49
55675;BME280;41562;44.330;23.802;2022-07-23T11:32:02;100104.47;;;34.27;29.14
55675;BME280;41562;44.330;23.802;2022-07-23T11:37:26;100098.47;;;34.29;29.02
55675;BME280;41562;44.330;23.802;2022-07-23T11:40:02;100082.19;;;34.31;28.40
55675;BME280;41562;44.330;23.802;2022-07-23T11:42:35;100090.16;;;34.29;27.62
55675;BME280;41562;44.330;23.802;2022-07-23T11:45:08;100094.50;;;34.30;29.13
55675;BME280;41562;44.330;23.802;2022-07-23T11:47:42;100092.84;;;34.33;28.18
55675;BME280;41562;44.330;23.802;2022-07-23T11:50:10;100090.81;;;34.49;29.04
55675;BME280;41562;44.330;23.802;2022-07-23T11:52:46;100084.59;;;34.45;28.63
55675;BME280;41562;44.330;23.802;2022-07-23T11:55:20;100077.16;;;34.55;30.06
55675;BME280;41562;44.330;23.802;2022-07-23T11:57:52;100077.94;;;34.55;28.27
55675;BME280;41562;44.330;23.802;2022-07-23T12:00:26;100082.66;;;34.58;28.43
55675;BME280;41562;44.330;23.802;2022-07-23T12:02:59;100076.97;;;34.62;28.64
55675;BME280;41562;44.330;23.802;2022-07-23T12:05:32;100074.00;;;34.69;28.32
55675;BME280;41562;44.330;23.802;2022-07-23T12:08:06;100068.06;;;34.71;27.76
55675;BME280;41562;44.330;23.802;2022-07-23T12:10:42;100068.28;;;34.60;27.79
55675;BME280;41562;44.330;23.802;2022-07-23T12:13:16;100063.19;;;34.58;28.45
55675;BME280;41562;44.330;23.802;2022-07-23T12:15:52;100068.84;;;34.55;28.14
55675;BME280;41562;44.330;23.802;2022-07-23T12:18:25;100060.38;;;34.75;29.08
55675;BME280;41562;44.330;23.802;2022-07-23T12:21:04;100056.75;;;34.78;29.66
55675;BME280;41562;44.330;23.802;2022-07-23T12:23:43;100059.63;;;34.87;28.28
55675;BME280;41562;44.330;23.802;2022-07-23T12:26:30;100055.00;;;34.67;28.03
55675;BME280;41562;44.330;23.802;2022-07-23T12:29:01;100054.47;;;34.73;27.70
55675;BME280;41562;44.330;23.802;2022-07-23T12:31:35;100047.63;;;34.61;27.64
55675;BME280;41562;44.330;23.802;2022-07-23T12:34:14;100039.72;;;34.59;27.94
55675;BME280;41562;44.330;23.802;2022-07-23T12:36:48;100040.75;;;34.65;29.79
55675;BME280;41562;44.330;23.802;2022-07-23T12:39:39;100033.75;;;34.90;27.74
55675;BME280;41562;44.330;23.802;2022-07-23T12:42:14;100028.50;;;34.92;26.63
55675;BME280;41562;44.330;23.802;2022-07-23T12:45:08;100020.72;;;34.87;27.05
55675;BME280;41562;44.330;23.802;2022-07-23T12:50:57;100011.50;;;34.77;27.09
55675;BME280;41562;44.330;23.802;2022-07-23T12:53:43;100021.09;;;35.01;27.28
55675;BME280;41562;44.330;23.802;2022-07-23T12:59:24;100004.72;;;35.03;25.05
55675;BME280;41562;44.330;23.802;2022-07-23T13:02:20;100003.44;;;35.08;25.62
55675;BME280;41562;44.330;23.802;2022-07-23T13:04:56;99995.09;;;35.08;24.26
55675;BME280;41562;44.330;23.802;2022-07-23T13:07:36;99993.19;;;35.05;24.37
55675;BME280;41562;44.330;23.802;2022-07-23T13:10:45;99994.75;;;35.06;25.31
55675;BME280;41562;44.330;23.802;2022-07-23T13:13:37;99989.84;;;35.10;25.48
55675;BME280;41562;44.330;23.802;2022-07-23T13:16:21;99989.97;;;35.19;25.93
55675;BME280;41562;44.330;23.802;2022-07-23T13:19:07;99985.22;;;35.32;25.34
55675;BME280;41562;44.330;23.802;2022-07-23T13:21:51;99976.06;;;35.19;24.71
55675;BME280;41562;44.330;23.802;2022-07-23T13:24:30;99980.50;;;35.17;24.87
55675;BME280;41562;44.330;23.802;2022-07-23T13:27:09;99964.28;;;35.02;25.38
55675;BME280;41562;44.330;23.802;2022-07-23T13:30:15;99966.28;;;35.02;25.70
55675;BME280;41562;44.330;23.802;2022-07-23T13:32:57;99959.25;;;35.10;24.80
55675;BME280;41562;44.330;23.802;2022-07-23T13:35:34;99960.06;;;35.23;25.27
55675;BME280;41562;44.330;23.802;2022-07-23T13:38:07;99957.81;;;35.18;27.84
55675;BME280;41562;44.330;23.802;2022-07-23T13:40:45;99953.16;;;35.15;25.53
55675;BME280;41562;44.330;23.802;2022-07-23T13:43:22;99948.47;;;35.12;24.62